createdAt,value
2018-12-21T00:02:18.258Z,95772.30
2018-12-21T00:04:48.464Z,95780.02
2018-12-21T00:07:18.657Z,95783.53
2018-12-21T00:09:48.885Z,95782.97
2018-12-21T00:12:20.049Z,95770.90
2018-12-21T00:14:50.225Z,95767.46
2018-12-21T00:17:20.362Z,95768.98
2018-12-21T00:19:50.539Z,95769.08
2018-12-21T00:22:20.687Z,95755.85
2018-12-21T00:24:50.858Z,95755.69
2018-12-21T00:27:21.122Z,95758.44
2018-12-21T00:29:53.556Z,95747.20
2018-12-21T00:32:29.013Z,95749.73
2018-12-21T00:35:04.510Z,95753.17
2018-12-21T00:37:39.769Z,95752.82
2018-12-21T00:40:15.169Z,95757.09
2018-12-21T00:42:50.185Z,95748.86
2018-12-21T00:45:26.211Z,95747.42
2018-12-21T00:47:56.681Z,95747.86
2018-12-21T00:50:26.881Z,95746.28
2018-12-21T00:52:58.397Z,95755.31
2018-12-21T00:55:28.561Z,95749.40
2018-12-21T00:57:58.699Z,95741.55
2018-12-21T01:00:29.521Z,95745.72
2018-12-21T01:02:59.673Z,95742.45
2018-12-21T01:05:29.932Z,95732.95
2018-12-21T01:08:00.106Z,95741.34
2018-12-21T01:10:30.329Z,95735.64
2018-12-21T01:13:01.589Z,95736.73
2018-12-21T01:15:34.861Z,95738.80
2018-12-21T01:18:05.150Z,95742.75
2018-12-21T01:20:35.399Z,95743.79
2018-12-21T01:23:05.507Z,95747.71
2018-12-21T01:25:35.674Z,95735.61
2018-12-21T01:28:05.786Z,95748.52
2018-12-21T01:30:35.998Z,95754.75
2018-12-21T01:33:07.003Z,95747.13
2018-12-21T01:35:37.257Z,95753.61
2018-12-21T01:38:07.460Z,95743.33
2018-12-21T01:40:38.972Z,95750.09
2018-12-21T01:43:09.162Z,95756.09
2018-12-21T01:45:39.313Z,95754.80
2018-12-21T01:48:09.447Z,95747.20
2018-12-21T01:50:39.657Z,95746.95
2018-12-21T01:53:09.797Z,95744.22
2018-12-21T01:55:40.014Z,95747.69
2018-12-21T01:58:10.127Z,95736.32
2018-12-21T02:00:40.332Z,95744.62
2018-12-21T02:03:10.451Z,95738.02
2018-12-21T02:05:40.716Z,95744.38
2018-12-21T02:08:10.864Z,95739.36
2018-12-21T02:10:41.027Z,95732.86
2018-12-21T02:13:12.498Z,95729.48
2018-12-21T02:15:42.648Z,95720.98
2018-12-21T02:18:12.810Z,95712.85
2018-12-21T02:20:43.028Z,95713.86
2018-12-21T02:23:13.238Z,95716.95
2018-12-21T02:25:44.540Z,95715.08
2018-12-21T02:28:14.748Z,95706.30
2018-12-21T02:30:44.907Z,95705.84
2018-12-21T02:33:15.126Z,95711.79
2018-12-21T02:35:45.291Z,95712.04
2018-12-21T02:38:15.416Z,95707.61
2018-12-21T02:40:45.586Z,95711.10
2018-12-21T02:43:15.837Z,95709.91
2018-12-21T02:45:45.989Z,95703.98
2018-12-21T02:48:16.123Z,95698.72
2018-12-21T02:50:46.268Z,95709.50
2018-12-21T02:53:16.415Z,95698.77
2018-12-21T02:55:46.568Z,95709.30
2018-12-21T02:58:16.772Z,95711.84
2018-12-21T03:00:46.974Z,95709.78
2018-12-21T03:03:17.112Z,95705.53
2018-12-21T03:05:47.445Z,95709.15
2018-12-21T03:08:17.565Z,95700.83
2018-12-21T03:10:47.757Z,95698.05
2018-12-21T03:13:17.899Z,95694.25
2018-12-21T03:15:48.094Z,95692.81
2018-12-21T03:18:18.286Z,95693.09
2018-12-21T03:20:48.445Z,95689.04
2018-12-21T03:23:18.605Z,95691.22
2018-12-21T03:25:48.747Z,95686.26
2018-12-21T03:28:18.909Z,95688.89
2018-12-21T03:30:49.089Z,95683.83
2018-12-21T03:33:19.249Z,95680.08
2018-12-21T03:35:49.515Z,95692.96
2018-12-21T03:38:19.669Z,95676.34
2018-12-21T03:40:49.827Z,95672.30
2018-12-21T03:43:20.002Z,95671.33
2018-12-21T03:45:50.145Z,95668.24
2018-12-21T03:48:20.457Z,95671.05
2018-12-21T03:50:50.723Z,95660.11
2018-12-21T03:53:20.883Z,95653.81
2018-12-21T03:55:51.029Z,95643.48
2018-12-21T03:58:21.223Z,95646.61
2018-12-21T04:00:51.360Z,95636.48
2018-12-21T04:03:21.530Z,95633.11
2018-12-21T04:05:51.704Z,95629.86
2018-12-21T04:08:21.850Z,95625.89
2018-12-21T04:10:52.004Z,95625.32
2018-12-21T04:13:22.150Z,95622.05
2018-12-21T04:15:52.368Z,95625.02
2018-12-21T04:18:22.561Z,95630.39
2018-12-21T04:20:52.743Z,95624.87
2018-12-21T04:23:22.864Z,95621.64
2018-12-21T04:25:53.361Z,95628.14
2018-12-21T04:28:23.495Z,95621.39
2018-12-21T04:30:53.653Z,95611.39
2018-12-21T04:33:23.772Z,95612.68
2018-12-21T04:35:55.126Z,95618.37
2018-12-21T04:38:25.270Z,95613.22
2018-12-21T04:40:55.529Z,95612.63
2018-12-21T04:43:25.675Z,95612.72
2018-12-21T04:45:55.961Z,95612.63
2018-12-21T04:48:26.081Z,95608.47
2018-12-21T04:50:56.269Z,95611.63
2018-12-21T04:53:26.414Z,95610.55
2018-12-21T04:55:56.617Z,95608.45
2018-12-21T04:58:26.722Z,95602.06
2018-12-21T05:00:56.960Z,95595.44
2018-12-21T05:03:27.225Z,95591.88
2018-12-21T05:05:57.387Z,95584.80
2018-12-21T05:08:27.500Z,95581.37
2018-12-21T05:10:57.687Z,95587.34
2018-12-21T05:13:27.910Z,95589.20
2018-12-21T05:15:58.083Z,95590.48
2018-12-21T05:18:28.357Z,95585.17
2018-12-21T05:20:58.525Z,95590.09
2018-12-21T05:23:28.655Z,95593.38
2018-12-21T05:25:58.906Z,95591.09
2018-12-21T05:28:29.108Z,95586.44
2018-12-21T05:30:59.339Z,95587.03
2018-12-21T05:33:29.512Z,95580.72
2018-12-21T05:35:59.756Z,95565.30
2018-12-21T05:38:30.651Z,95559.25
2018-12-21T05:41:00.780Z,95548.41
2018-12-21T05:43:30.942Z,95536.06
2018-12-21T05:46:01.120Z,95549.95
2018-12-21T05:48:31.272Z,95547.78
2018-12-21T05:51:01.458Z,95548.57
2018-12-21T05:53:31.596Z,95540.34
2018-12-21T05:56:01.884Z,95543.91
2018-12-21T05:58:32.174Z,95545.34
2018-12-21T06:01:02.386Z,95531.41
2018-12-21T06:03:32.552Z,95529.63
2018-12-21T06:06:02.738Z,95528.64
2018-12-21T06:08:33.584Z,95521.22
2018-12-21T06:11:03.834Z,95516.06
2018-12-21T06:13:34.028Z,95520.52
2018-12-21T06:16:04.364Z,95514.13
2018-12-21T06:18:34.651Z,95507.09
2018-12-21T06:21:04.916Z,95501.78
2018-12-21T06:23:35.102Z,95500.15
2018-12-21T06:26:05.390Z,95495.45
2018-12-21T06:28:35.639Z,95489.02
2018-12-21T06:31:06.054Z,95493.97
2018-12-21T06:33:36.263Z,95482.91
2018-12-21T06:36:06.719Z,95475.63
2018-12-21T06:38:36.896Z,95468.84
2018-12-21T06:41:07.072Z,95476.56
2018-12-21T06:43:37.308Z,95478.69
2018-12-21T06:46:14.204Z,95475.77
2018-12-21T06:48:39.652Z,95471.16
2018-12-21T06:51:09.846Z,95470.72
2018-12-21T06:53:40.009Z,95462.45
2018-12-21T06:56:10.281Z,95470.38
2018-12-21T06:58:40.406Z,95472.11
2018-12-21T07:01:10.614Z,95465.42
2018-12-21T07:03:40.865Z,95460.80
2018-12-21T07:06:11.108Z,95447.33
2018-12-21T07:08:41.280Z,95447.96
2018-12-21T07:11:11.480Z,95440.06
2018-12-21T07:13:41.785Z,95442.91
2018-12-21T07:16:11.944Z,95434.50
2018-12-21T07:18:42.124Z,95437.18
2018-12-21T07:21:12.381Z,95432.92
2018-12-21T07:23:42.642Z,95427.32
2018-12-21T07:26:12.910Z,95425.41
2018-12-21T07:28:45.089Z,95417.79
2018-12-21T07:31:15.322Z,95421.36
2018-12-21T07:33:46.254Z,95420.52
2018-12-21T07:36:16.455Z,95431.11
2018-12-21T07:38:46.579Z,95426.58
2018-12-21T07:41:16.868Z,95413.72
2018-12-21T07:43:47.063Z,95416.10
2018-12-21T07:46:17.282Z,95415.35
2018-12-21T07:48:48.339Z,95407.05
2018-12-21T07:51:18.823Z,95403.50
2018-12-21T07:53:49.033Z,95394.52
2018-12-21T07:56:19.218Z,95391.16
2018-12-21T07:58:56.883Z,95393.39
2018-12-21T08:01:21.559Z,95391.38
2018-12-21T08:03:51.764Z,95393.13
2018-12-21T08:06:22.077Z,95389.57
2018-12-21T08:08:52.220Z,95394.64
2018-12-21T08:11:22.556Z,95389.51
2018-12-21T08:13:52.814Z,95393.70
2018-12-21T08:16:22.999Z,95392.30
2018-12-21T08:18:53.259Z,95388.57
2018-12-21T08:21:23.491Z,95389.16
2018-12-21T08:23:53.762Z,95382.96
2018-12-21T08:26:24.038Z,95377.42
2018-12-21T08:28:54.270Z,95377.45
2018-12-21T08:31:24.810Z,95376.79
2018-12-21T08:33:54.962Z,95377.12
2018-12-21T08:36:25.136Z,95379.55
2018-12-21T08:38:55.320Z,95376.98
2018-12-21T08:41:25.570Z,95372.21
2018-12-21T08:43:55.778Z,95375.14
2018-12-21T08:46:26.009Z,95372.47
2018-12-21T08:48:56.195Z,95374.92
2018-12-21T08:51:26.386Z,95372.89
2018-12-21T08:53:56.605Z,95374.05
2018-12-21T08:56:26.848Z,95383.83
2018-12-21T08:58:57.005Z,95388.93
2018-12-21T09:01:27.260Z,95399.64
2018-12-21T09:03:57.486Z,95401.20
2018-12-21T09:06:27.835Z,95400.42
2018-12-21T09:08:58.063Z,95416.91
2018-12-21T09:11:28.230Z,95432.61
2018-12-21T09:13:58.574Z,95439.02
2018-12-21T09:16:28.833Z,95432.98
2018-12-21T09:18:59.098Z,95450.63
2018-12-21T09:21:29.376Z,95464.20
2018-12-21T09:24:01.224Z,95469.39
2018-12-21T09:26:32.920Z,95469.55
2018-12-21T09:29:03.115Z,95483.33
2018-12-21T09:31:33.366Z,95490.61
2018-12-21T09:34:03.595Z,95497.39
2018-12-21T09:36:33.921Z,95478.78
2018-12-21T09:39:04.910Z,95475.94
2018-12-21T09:41:35.311Z,95464.53
2018-12-21T09:44:05.520Z,95438.47
2018-12-21T09:46:35.754Z,95422.47
2018-12-21T09:49:06.142Z,95418.80
2018-12-21T09:51:36.470Z,95402.47
2018-12-21T09:54:10.074Z,95401.67
2018-12-21T09:56:39.034Z,95403.30
2018-12-21T09:59:09.512Z,95401.84
2018-12-21T10:01:39.737Z,95394.09
2018-12-21T10:04:09.946Z,95389.37
2018-12-21T10:06:40.099Z,95372.91
2018-12-21T10:09:10.266Z,95369.13
2018-12-21T10:11:40.536Z,95362.55
2018-12-21T10:14:10.710Z,95366.19
2018-12-21T10:16:40.896Z,95348.81
2018-12-21T10:19:11.004Z,95331.08
2018-12-21T10:21:41.488Z,95338.29
2018-12-21T10:24:18.461Z,95318.93
2018-12-21T10:26:43.976Z,95316.20
2018-12-21T10:29:14.182Z,95304.79
2018-12-21T10:31:44.371Z,95298.84
2018-12-21T10:34:14.561Z,95282.16
2018-12-21T10:36:44.736Z,95279.48
2018-12-21T10:39:19.404Z,95271.12
2018-12-21T10:41:49.599Z,95277.23
2018-12-21T10:44:19.841Z,95254.06
2018-12-21T10:46:50.134Z,95255.86
2018-12-21T10:49:20.384Z,95236.87
2018-12-21T10:51:50.600Z,95247.53
2018-12-21T10:54:26.781Z,95235.09
2018-12-21T10:56:53.192Z,95230.08
2018-12-21T10:59:23.366Z,95208.81
2018-12-21T11:01:53.538Z,95218.42
2018-12-21T11:04:23.719Z,95211.28
2018-12-21T11:06:53.862Z,95206.34
2018-12-21T11:09:24.323Z,95190.40
2018-12-21T11:11:54.514Z,95183.42
2018-12-21T11:14:25.984Z,95170.92
2018-12-21T11:16:56.158Z,95169.63
2018-12-21T11:19:26.416Z,95154.61
2018-12-21T11:21:56.592Z,95150.38
2018-12-21T11:24:35.223Z,95132.89
2018-12-21T11:26:58.963Z,95137.91
2018-12-21T11:29:29.148Z,95108.20
2018-12-21T11:31:59.441Z,95106.00
2018-12-21T11:34:29.638Z,95089.08
2018-12-21T11:36:59.805Z,95086.41
2018-12-21T11:39:30.312Z,95080.89
2018-12-21T11:42:00.590Z,95086.06
2018-12-21T11:44:30.802Z,95083.38
2018-12-21T11:47:01.099Z,95057.98
2018-12-21T11:49:31.300Z,95079.61
2018-12-21T11:52:01.522Z,95062.96
2018-12-21T11:54:31.755Z,95050.92
2018-12-21T11:57:02.607Z,95057.33
2018-12-21T11:59:32.787Z,95054.80
2018-12-21T12:02:03.102Z,95061.55
2018-12-21T12:04:33.472Z,95058.14
2018-12-21T12:07:03.724Z,95054.25
2018-12-21T12:09:33.948Z,95052.84
2018-12-21T12:12:05.250Z,95039.95
2018-12-21T12:14:35.639Z,95040.50
2018-12-21T12:17:05.857Z,95021.60
2018-12-21T12:19:36.082Z,95020.38
2018-12-21T12:22:06.392Z,95021.43
2018-12-21T12:24:36.670Z,95023.17
2018-12-21T12:27:06.974Z,95009.80
2018-12-21T12:29:37.309Z,95005.70
2018-12-21T12:32:07.488Z,95012.05
2018-12-21T12:34:37.748Z,94998.77
2018-12-21T12:37:08.013Z,94994.07
2018-12-21T12:39:38.195Z,94989.53
2018-12-21T12:42:08.475Z,94984.70
2018-12-21T12:44:40.279Z,94975.44
2018-12-21T12:47:10.526Z,94969.24
2018-12-21T12:49:41.019Z,94952.33
2018-12-21T12:52:11.361Z,94952.33
2018-12-21T12:54:41.793Z,94953.97
2018-12-21T12:57:12.130Z,94941.53
2018-12-21T12:59:42.344Z,94944.56
2018-12-21T13:02:12.717Z,94941.86
2018-12-21T13:04:42.852Z,94933.59
2018-12-21T13:07:13.123Z,94933.84
2018-12-21T13:09:43.340Z,94929.81
2018-12-21T13:12:13.484Z,94934.10
2018-12-21T13:14:43.825Z,94926.78
2018-12-21T13:17:14.194Z,94923.45
2018-12-21T13:19:44.483Z,94928.11
2018-12-21T13:22:14.936Z,94919.47
2018-12-21T13:24:45.252Z,94926.80
2018-12-21T13:27:15.493Z,94927.84
2018-12-21T13:29:45.875Z,94918.77
2018-12-21T13:32:16.217Z,94923.00
2018-12-21T13:34:46.526Z,94916.90
2018-12-21T13:37:16.753Z,94908.34
2018-12-21T13:39:47.075Z,94909.27
2018-12-21T13:42:17.312Z,94894.73
2018-12-21T13:44:47.522Z,94908.94
2018-12-21T13:47:17.743Z,94912.66
2018-12-21T13:49:48.061Z,94929.42
2018-12-21T13:52:18.255Z,94925.20
2018-12-21T13:54:48.687Z,94921.45
2018-12-21T13:57:18.925Z,94926.36
2018-12-21T13:59:49.152Z,94926.77
2018-12-21T14:02:19.375Z,94930.31
2018-12-21T14:04:49.574Z,94921.38
2018-12-21T14:07:19.843Z,94933.31
2018-12-21T14:09:50.140Z,94931.31
2018-12-21T14:12:20.373Z,94934.73
2018-12-21T14:14:50.539Z,94948.84
2018-12-21T14:17:20.762Z,94931.45
2018-12-21T14:19:50.971Z,94923.95
2018-12-21T14:22:21.140Z,94928.55
2018-12-21T14:24:51.418Z,94918.16
2018-12-21T14:27:21.675Z,94930.09
2018-12-21T14:29:51.998Z,94921.72
2018-12-21T14:32:22.231Z,94932.11
2018-12-21T14:34:52.447Z,94932.41
2018-12-21T14:37:22.728Z,94949.98
2018-12-21T14:39:52.977Z,94933.88
2018-12-21T14:42:23.153Z,94925.06
2018-12-21T14:44:53.315Z,94930.31
2018-12-21T14:47:24.033Z,94928.48
2018-12-21T14:49:54.370Z,94932.44
2018-12-21T14:52:24.738Z,94927.31
2018-12-21T14:54:54.925Z,94946.28
2018-12-21T14:57:25.168Z,94950.80
2018-12-21T14:59:55.365Z,94944.52
2018-12-21T15:02:25.645Z,94948.07
2018-12-21T15:04:55.947Z,94947.80
2018-12-21T15:07:26.264Z,94969.83
2018-12-21T15:09:56.559Z,94955.04
2018-12-21T15:12:26.796Z,94968.47
2018-12-21T15:14:57.355Z,94959.80
2018-12-21T15:17:27.748Z,94969.41
2018-12-21T15:19:57.962Z,94956.27
2018-12-21T15:22:28.276Z,94969.49
2018-12-21T15:24:58.736Z,94957.98
2018-12-21T15:27:28.948Z,94973.46
2018-12-21T15:29:59.366Z,94969.31
2018-12-21T15:32:29.660Z,94968.81
2018-12-21T15:34:59.978Z,94989.23
2018-12-21T15:37:30.421Z,94981.53
2018-12-21T15:40:01.687Z,94978.05
2018-12-21T15:42:32.000Z,94970.45
2018-12-21T15:45:02.337Z,94978.98
2018-12-21T15:47:32.890Z,94976.25
2018-12-21T15:50:03.103Z,94977.83
2018-12-21T15:52:33.484Z,94980.89
2018-12-21T15:55:03.821Z,94971.05
2018-12-21T15:57:34.165Z,94979.12
2018-12-21T16:00:05.821Z,94977.41
2018-12-21T16:02:36.374Z,94989.83
2018-12-21T16:05:06.968Z,94983.53
2018-12-21T16:07:37.378Z,94995.58
2018-12-21T16:10:10.056Z,94987.02
2018-12-21T16:12:40.320Z,94996.56
2018-12-21T16:15:10.706Z,95009.55
2018-12-21T16:17:41.119Z,94999.22
2018-12-21T16:20:14.735Z,95011.26
2018-12-21T16:22:45.293Z,95014.38
2018-12-21T16:25:15.538Z,95018.27
2018-12-21T16:27:45.952Z,95013.55
2018-12-21T16:30:16.291Z,95017.11
2018-12-21T16:32:46.626Z,95024.42
2018-12-21T16:35:16.977Z,95019.53
2018-12-21T16:37:47.326Z,95035.33
2018-12-21T16:40:17.776Z,95027.78
2018-12-21T16:42:48.073Z,95032.64
2018-12-21T16:45:18.474Z,95033.05
2018-12-21T16:47:48.658Z,95034.08
2018-12-21T16:50:18.945Z,95039.88
2018-12-21T16:52:49.286Z,95036.53
2018-12-21T16:55:19.689Z,95037.75
2018-12-21T16:57:49.902Z,95043.54
2018-12-21T17:00:20.201Z,95038.98
2018-12-21T17:02:50.429Z,95036.16
2018-12-21T17:05:20.589Z,95041.50
2018-12-21T17:07:50.997Z,95039.50
2018-12-21T17:10:23.875Z,95052.02
2018-12-21T17:12:54.061Z,95029.38
2018-12-21T17:15:24.218Z,95029.38
2018-12-21T17:17:54.378Z,95028.88
2018-12-21T17:20:24.550Z,95052.07
2018-12-21T17:22:54.716Z,95033.61
2018-12-21T17:25:24.940Z,95044.14
2018-12-21T17:27:55.234Z,95034.70
2018-12-21T17:30:25.380Z,95045.91
2018-12-21T17:32:55.580Z,95040.79
2018-12-21T17:35:25.737Z,95034.91
2018-12-21T17:37:55.999Z,95053.70
2018-12-21T17:40:26.314Z,95053.38
2018-12-21T17:42:56.724Z,95060.14
2018-12-21T17:45:27.065Z,95052.82
2018-12-21T17:47:57.269Z,95058.87
2018-12-21T17:50:27.610Z,95056.84
2018-12-21T17:52:57.954Z,95065.20
2018-12-21T17:55:28.133Z,95060.05
2018-12-21T17:57:58.495Z,95072.33
2018-12-21T18:00:28.712Z,95072.73
2018-12-21T18:02:59.602Z,95052.95
2018-12-21T18:05:29.762Z,95069.12
2018-12-21T18:07:59.990Z,95084.00
2018-12-21T18:10:30.399Z,95080.58
2018-12-21T18:13:00.651Z,95072.52
2018-12-21T18:15:30.800Z,95082.02
2018-12-21T18:18:00.967Z,95096.36
2018-12-21T18:20:31.190Z,95091.38
2018-12-21T18:23:03.224Z,95084.47
2018-12-21T18:25:33.399Z,95081.45
2018-12-21T18:28:10.826Z,95099.32
2018-12-21T18:30:44.819Z,95090.13
2018-12-21T18:33:17.054Z,95090.36
2018-12-21T18:35:47.347Z,95094.77
2018-12-21T18:38:21.429Z,95096.20
2018-12-21T18:40:51.606Z,95102.56
2018-12-21T18:43:21.790Z,95103.16
2018-12-21T18:45:52.094Z,95106.48
2018-12-21T18:48:22.509Z,95106.55
2018-12-21T18:50:52.679Z,95104.23
2018-12-21T18:53:22.931Z,95089.64
2018-12-21T18:55:54.105Z,95099.48
2018-12-21T18:58:24.381Z,95093.51
2018-12-21T19:00:54.601Z,95093.53
2018-12-21T19:03:24.947Z,95099.16
2018-12-21T19:05:55.147Z,95084.25
2018-12-21T19:08:25.356Z,95093.67
2018-12-21T19:10:55.545Z,95091.08
2018-12-21T19:13:25.761Z,95077.39
2018-12-21T19:15:55.974Z,95078.69
2018-12-21T19:18:26.333Z,95096.38
2018-12-21T19:20:56.533Z,95090.22
2018-12-21T19:23:26.871Z,95086.73
2018-12-21T19:25:57.071Z,95086.88
2018-12-21T19:28:27.358Z,95089.19
2018-12-21T19:30:57.537Z,95091.45
2018-12-21T19:33:27.756Z,95093.61
2018-12-21T19:35:57.965Z,95088.92
2018-12-21T19:38:28.212Z,95092.62
2018-12-21T19:40:58.387Z,95079.91
2018-12-21T19:43:28.675Z,95101.64
2018-12-21T19:46:01.064Z,95098.23
2018-12-21T19:48:31.264Z,95104.19
2018-12-21T19:51:01.462Z,95101.30
2018-12-21T19:53:31.742Z,95104.73
2018-12-21T19:56:25.443Z,95106.31
2018-12-21T19:58:55.707Z,95098.52
2018-12-21T20:01:26.887Z,95099.81
2018-12-21T20:03:57.175Z,95078.10
2018-12-21T20:06:27.438Z,95093.77
2018-12-21T20:08:57.813Z,95107.23
2018-12-21T20:11:28.094Z,95099.48
2018-12-21T20:13:58.415Z,95113.27
2018-12-21T20:16:28.782Z,95109.51
2018-12-21T20:18:59.042Z,95112.98
2018-12-21T20:21:29.355Z,95127.00
2018-12-21T20:23:59.568Z,95094.41
2018-12-21T20:26:29.771Z,95106.53
2018-12-21T20:28:59.974Z,95114.64
2018-12-21T20:31:30.142Z,95111.41
2018-12-21T20:34:00.432Z,95111.02
2018-12-21T20:36:30.678Z,95111.02
2018-12-21T20:39:00.949Z,95105.83
2018-12-21T20:41:32.206Z,95099.47
2018-12-21T20:44:02.402Z,95097.88
2018-12-21T20:46:32.592Z,95120.72
2018-12-21T20:49:02.810Z,95110.92
2018-12-21T20:51:32.989Z,95109.81
2018-12-21T20:54:03.232Z,95118.30
2018-12-21T20:56:33.456Z,95114.30
2018-12-21T20:59:11.166Z,95112.95
2018-12-21T21:01:41.423Z,95113.28
2018-12-21T21:04:11.713Z,95107.57
2018-12-21T21:06:42.077Z,95102.73
2018-12-21T21:09:13.897Z,95103.53
2018-12-21T21:11:44.107Z,95107.87
2018-12-21T21:14:16.586Z,95100.83
2018-12-21T21:16:46.774Z,95087.68
2018-12-21T21:19:17.005Z,95109.31
2018-12-21T21:21:47.319Z,95109.54
2018-12-21T21:24:17.667Z,95102.23
2018-12-21T21:26:47.968Z,95110.05
2018-12-21T21:29:18.316Z,95120.95
2018-12-21T21:31:49.512Z,95108.34
2018-12-21T21:34:19.813Z,95111.27
2018-12-21T21:36:50.065Z,95108.73
2018-12-21T21:39:20.310Z,95101.59
2018-12-21T21:41:50.733Z,95100.00
2018-12-21T21:44:20.934Z,95107.66
2018-12-21T21:46:51.346Z,95096.64
2018-12-21T21:49:21.692Z,95100.58
2018-12-21T21:51:51.863Z,95091.48
2018-12-21T21:54:22.074Z,95092.16
2018-12-21T21:56:52.337Z,95093.61
2018-12-21T21:59:22.844Z,95101.73
2018-12-21T22:01:53.086Z,95098.81
2018-12-21T22:04:23.358Z,95100.73
2018-12-21T22:06:53.582Z,95100.51
2018-12-21T22:09:23.955Z,95087.03
2018-12-21T22:11:54.264Z,95095.05
2018-12-21T22:14:24.521Z,95081.11
2018-12-21T22:16:54.750Z,95076.34
2018-12-21T22:19:25.089Z,95084.83
2018-12-21T22:21:55.258Z,95093.25
2018-12-21T22:24:25.510Z,95092.30
2018-12-21T22:26:55.739Z,95090.22
2018-12-21T22:29:25.998Z,95083.49
2018-12-21T22:31:56.675Z,95069.91
2018-12-21T22:34:27.042Z,95081.94
2018-12-21T22:36:57.311Z,95078.18
2018-12-21T22:39:27.654Z,95064.59
2018-12-21T22:41:57.871Z,95074.56
2018-12-21T22:44:28.060Z,95079.81
2018-12-21T22:46:58.293Z,95067.88
2018-12-21T22:49:28.681Z,95073.45
2018-12-21T22:51:59.977Z,95066.62
2018-12-21T22:54:30.262Z,95077.50
2018-12-21T22:57:00.607Z,95065.47
2018-12-21T22:59:30.872Z,95067.92
2018-12-21T23:02:01.164Z,95066.15
2018-12-21T23:04:31.587Z,95063.11
2018-12-21T23:07:01.914Z,95087.28
2018-12-21T23:09:33.286Z,95069.22
2018-12-21T23:12:03.590Z,95077.64
2018-12-21T23:14:33.934Z,95084.79
2018-12-21T23:17:04.238Z,95077.03
2018-12-21T23:19:34.488Z,95072.80
2018-12-21T23:22:04.873Z,95071.50
2018-12-21T23:24:35.139Z,95039.85
2018-12-21T23:27:05.327Z,95068.36
2018-12-21T23:29:35.596Z,95054.59
2018-12-21T23:32:05.919Z,95052.67
2018-12-21T23:34:36.238Z,95055.27
2018-12-21T23:37:06.581Z,95071.83
2018-12-21T23:39:36.857Z,95071.97
2018-12-21T23:42:07.051Z,95069.30
2018-12-21T23:44:37.277Z,95079.88
2018-12-21T23:47:07.491Z,95076.48
2018-12-21T23:49:37.814Z,95075.25
2018-12-21T23:52:08.170Z,95086.52
2018-12-21T23:54:38.487Z,95090.14
2018-12-21T23:57:08.653Z,95081.32
2018-12-21T23:59:38.917Z,95078.18
